Terminal Aerodrome Forecast
Issued by NWS

Home | Current Version | Previous Version | Text Only | Print | Product List | Glossary On
Versions: 1 2 3 4 5 6 7 8 9 10 11 12 13 14 15 16 17 18 19 20 21 22 23 24 25 26
000
FTUS41 KILN 251122
TAFLUK
TAF
KLUK 251122Z 2512/2612 26012G22KT P6SM OVC040
     FM251500 26014G24KT P6SM OVC028
     FM251900 27014G24KT P6SM OVC035
     FM252300 27010KT P6SM BKN050
     FM260300 28008KT P6SM SCT050
     FM260600 27006KT P6SM SCT250=

USA.gov is the U.S. government's official web portal to all federal, state and local government web resources and services.